Bookmark and Share
Track history (hours):
 

Apiliotis

Last reported at 2014-Apr-23 12:33 UTC. Time now 2014-Apr-23 13:16 UTC.
Position N 36°53' E 025°16'.

Length 79 m; draft 4.5 m.

Type: Ship. MMSI: 240438000.

NotesDate/timePositionNaut miles runAvg speedWind from/ knotsBaromVisibWave heightAir tempDewpointWater temp
2014-Apr-23 12:33N 36°53' E 025°16'1110.7
2014-Apr-23 11:33N 36°52' E 025°30'1 0.7
2014-Apr-23 10:33N 36°52' E 025°31'2 1.8
2014-Apr-23 09:34N 36°54' E 025°30'10 9.9
2014-Apr-23 08:33N 36°55' E 025°43'1110.6
2014-Apr-23 07:33N 36°54' E 025°56'2 2.2
2014-Apr-23 06:33N 36°54' E 025°59'0 0.0
2014-Apr-23 05:32N 36°54' E 025°59'1 0.8
2014-Apr-23 04:33N 36°54' E 025°57'7 7.5
2014-Apr-23 03:33N 36°53' E 025°48'1010.2
2014-Apr-23 02:33N 36°46' E 025°39'1010.2
2014-Apr-23 01:33N 36°38' E 025°31'1010.5
2014-Apr-23 00:33N 36°30' E 025°22'8 7.7
2014-Apr-22 23:33N 36°23' E 025°26'0 0.0
2014-Apr-22 22:33N 36°23' E 025°26'0 0.0
2014-Apr-22 21:33N 36°23' E 025°26'0 0.0
2014-Apr-22 20:33N 36°23' E 025°26'0 0.0
2014-Apr-22 19:33N 36°23' E 025°26'0 0.0
2014-Apr-22 18:33N 36°23' E 025°26'4 3.8
2014-Apr-22 17:33N 36°26' E 025°23'1110.8
2014-Apr-22 16:33N 36°32' E 025°11'1110.8
2014-Apr-22 15:33N 36°36' E 024°59'2 1.9
2014-Apr-22 14:33N 36°37' E 024°57'6 5.9
2014-Apr-22 13:33N 36°31' E 024°57'1111.3
2014-Apr-22 12:33N 36°20' E 024°53'1411.3
2014-Apr-22 11:18N 36°07' E 024°48'811.1
2014-Apr-22 10:33N 35°59' E 024°45'1111.0
2014-Apr-22 09:33N 35°48' E 024°42'1111.0
2014-Apr-22 08:33N 35°37' E 024°39'1110.8
2014-Apr-22 07:32N 35°27' E 024°33'6 1.4
2014-Apr-22 03:14N 35°22' E 024°29'0 0.0
2014-Apr-21 15:33N 35°22' E 024°29'0 0.0
2014-Apr-21 14:32N 35°22' E 024°29'0 0.0
2014-Apr-21 13:33N 35°22' E 024°29'0 0.0
2014-Apr-21 12:33N 35°22' E 024°29'0 0.0
2014-Apr-21 11:31N 35°22' E 024°29'0 0.0
2014-Apr-21 09:27N 35°22' E 024°29'0 0.0
2014-Apr-21 07:08N 35°22' E 024°29'0 0.0
2014-Apr-21 06:32N 35°22' E 024°29'0 0.0
2014-Apr-21 05:33N 35°22' E 024°29'0 0.0
2014-Apr-21 04:33N 35°22' E 024°29'0 0.0
2014-Apr-21 03:32N 35°22' E 024°29'0 0.0
2014-Apr-21 02:33N 35°22' E 024°29'0 0.0
2014-Apr-21 01:32N 35°22' E 024°29'0 0.0
2014-Apr-21 00:33N 35°22' E 024°29'0 0.0
2014-Apr-20 23:32N 35°22' E 024°29'0 0.0
2014-Apr-20 22:32N 35°22' E 024°29'0 0.0
2014-Apr-20 21:12N 35°22' E 024°29'0 0.0
2014-Apr-20 20:31N 35°22' E 024°29'0 0.0
2014-Apr-20 19:32N 35°22' E 024°29'  
2014-Apr-17 22:28N 35°53' E 024°45'8 9.0
2014-Apr-17 21:33N 36°00' E 024°49'9 9.4
2014-Apr-17 20:33N 36°09' E 024°54'1010.1
2014-Apr-17 19:33N 36°18' E 024°59'1110.8
2014-Apr-17 18:33N 36°28' E 025°06'1010.2
2014-Apr-17 17:33N 36°37' E 025°10'1110.8
2014-Apr-17 16:33N 36°48' E 025°13'1111.0
2014-Apr-17 15:33N 36°58' E 025°16'9 9.4
2014-Apr-17 14:33N 37°06' E 025°22'0 0.1
2014-Apr-17 13:33N 37°06' E 025°22'0 0.0
2014-Apr-17 12:33N 37°06' E 025°22'0 0.1
2014-Apr-17 11:33N 37°06' E 025°22'2424.5
2014-Apr-17 10:33N 37°29' E 025°13'2424.2
2014-Apr-17 09:33N 37°05' E 025°09'0 0.0
2014-Apr-17 06:17N 37°05' E 025°09'0 0.0
2014-Apr-17 05:24N 37°05' E 025°09'2 1.5
2014-Apr-17 04:18N 37°06' E 025°07'810.4
2014-Apr-17 03:33N 37°13' E 025°12'1110.6
2014-Apr-17 02:33N 37°23' E 025°17'6 5.6
2014-Apr-17 01:33N 37°28' E 025°19'0 0.0
2014-Apr-17 00:33N 37°28' E 025°19'0 0.0
2014-Apr-16 23:33N 37°28' E 025°19'0 0.0
2014-Apr-16 22:33N 37°28' E 025°19'0 0.0
2014-Apr-16 21:33N 37°28' E 025°19'0 0.0
2014-Apr-16 20:33N 37°28' E 025°19'0 0.0
2014-Apr-16 19:33N 37°28' E 025°19'0 0.1
2014-Apr-16 18:33N 37°28' E 025°19'9 9.0
2014-Apr-16 17:33N 37°24' E 025°09'1111.0
2014-Apr-16 16:33N 37°15' E 025°01'1111.0
2014-Apr-16 15:33N 37°06' E 024°54'1111.0
2014-Apr-16 14:32N 36°56' E 024°47'1110.8
2014-Apr-16 13:33N 36°49' E 024°38'3 2.2
2014-Apr-16 12:15N 36°47' E 024°35'0 0.0
2014-Apr-16 11:30N 36°47' E 024°35'0 0.0
2014-Apr-16 10:33N 36°47' E 024°35'5 4.5
2014-Apr-16 09:32N 36°47' E 024°29'4 3.3
2014-Apr-16 08:14N 36°43' E 024°28'0 0.0
2014-Apr-16 07:31N 36°43' E 024°28'0 0.0
2014-Apr-16 06:30N 36°43' E 024°28'0 0.0
2014-Apr-16 05:33N 36°43' E 024°28'0 0.0
2014-Apr-16 04:33N 36°43' E 024°28'0 0.0
2014-Apr-16 03:33N 36°43' E 024°28'0 0.0
2014-Apr-16 02:30N 36°43' E 024°28'0 0.0
2014-Apr-16 01:27N 36°43' E 024°28'0 0.0
2014-Apr-16 00:27N 36°43' E 024°28'0 0.0
2014-Apr-15 23:24N 36°43' E 024°28'0 0.0
2014-Apr-15 21:14N 36°43' E 024°28'1 1.8
2014-Apr-15 20:25N 36°43' E 024°26'7 8.2
2014-Apr-15 19:33N 36°50' E 024°28'1010.2
2014-Apr-15 18:33N 36°57' E 024°37'4 3.1
2014-Apr-15 17:20N 36°59' E 024°40'0 0.0
2014-Apr-15 16:25N 36°59' E 024°40'12 6.4
2014-Apr-15 14:33N 37°04' E 024°27'26 4.3
2014-Apr-15 08:33N 37°30' E 024°29'1110.7
2014-Apr-15 07:34N 37°31' E 024°42'1110.5
2014-Apr-15 06:30N 37°30' E 024°56'5 5.5
2014-Apr-15 05:33N 37°25' E 024°58'2 0.9
2014-Apr-15 03:33N 37°26' E 024°56'0 0.0
2014-Apr-15 02:34N 37°26' E 024°56'0 0.0
2014-Apr-15 01:32N 37°26' E 024°56'0 0.0
2014-Apr-15 00:32N 37°26' E 024°56'0 0.0
2014-Apr-14 23:32N 37°26' E 024°56'0 0.0
2014-Apr-14 22:33N 37°26' E 024°56'0 0.0
2014-Apr-14 21:33N 37°26' E 024°56'0 0.0
2014-Apr-14 20:33N 37°26' E 024°56'0 0.0
2014-Apr-14 19:33N 37°26' E 024°56'0 0.0
2014-Apr-14 18:33N 37°26' E 024°56'0 0.0
2014-Apr-14 17:33N 37°26' E 024°56'0 0.0
2014-Apr-14 16:33N 37°26' E 024°56'0 0.0
2014-Apr-14 15:33N 37°26' E 024°56'2 2.3
2014-Apr-14 14:33N 37°27' E 024°59'10 9.8
2014-Apr-14 13:33N 37°32' E 025°09'0 0.0
2014-Apr-14 11:33N 37°32' E 025°09'1 0.6
2014-Apr-14 10:33N 37°32' E 025°09'1010.4
2014-Apr-14 09:33N 37°38' E 024°58'  

Dump ship's entire track history

sailing weather and tide predictions

Apiliotis — SYVY — position and weather